Time;durP1;ratioP1;P1;durP2;ratioP2;P2;SDS_P1;SDS_P2;PMS_P1;PMS_P2;Temp;Humidity;BMP_temperature;BMP_pressure;BME280_temperature;BME280_humidity;BME280_pressure;Samples;Min_cycle;Max_cycle;Signal;HPM_P1;HPM_P2
2022/12/05 00:01:21;;;;;;;0.20;0.20;;;;;;;;;;4931868;28;20054;-79
2022/12/05 00:03:48;;;;;;;0.15;0.15;;;;;;;;;;4952307;28;20894;-78
2022/12/05 00:06:15;;;;;;;0.10;0.10;;;;;;;;;;4950845;28;20611;-77
2022/12/05 00:08:41;;;;;;;0.13;0.13;;;;;;;;;;4938319;28;20045;-78
2022/12/05 00:11:12;;;;;;;0.10;0.10;;;;;;;;;;4940773;28;20050;-77
2022/12/05 00:13:39;;;;;;;0.10;0.10;;;;;;;;;;4941046;28;20081;-77
2022/12/05 00:16:07;;;;;;;0.20;0.20;;;;;;;;;;4930054;28;20059;-77
2022/12/05 00:18:33;;;;;;;0.10;0.10;;;;;;;;;;4941530;28;20053;-79
2022/12/05 00:20:59;;;;;;;0.15;0.15;;;;;;;;;;4941920;28;20543;-77
2022/12/05 00:23:25;;;;;;;0.10;0.10;;;;;;;;;;4935034;28;20125;-78
2022/12/05 00:25:51;;;;;;;0.10;0.10;;;;;;;;;;4945242;28;20902;-78
2022/12/05 00:28:17;;;;;;;0.20;0.20;;;;;;;;;;4951639;28;20592;-78
2022/12/05 00:30:43;;;;;;;0.10;0.10;;;;;;;;;;4951834;28;21595;-78
2022/12/05 00:33:09;;;;;;;0.10;0.10;;;;;;;;;;4951418;28;20046;-78
2022/12/05 00:35:38;;;;;;;0.20;0.20;;;;;;;;;;4953330;28;20394;-78
2022/12/05 00:38:04;;;;;;;0.10;0.10;;;;;;;;;;4935033;28;20112;-79
2022/12/05 00:40:30;;;;;;;0.20;0.20;;;;;;;;;;4952832;28;20046;-77
2022/12/05 00:42:56;;;;;;;0.20;0.20;;;;;;;;;;4946602;28;20058;-79
2022/12/05 00:45:22;;;;;;;0.13;0.13;;;;;;;;;;4956197;28;20038;-77
2022/12/05 00:47:48;;;;;;;0.13;0.13;;;;;;;;;;4954001;28;21034;-78
2022/12/05 00:50:14;;;;;;;0.20;0.20;;;;;;;;;;4953515;28;20077;-78
2022/12/05 00:52:40;;;;;;;0.10;0.10;;;;;;;;;;4931519;28;20082;-78
2022/12/05 00:55:06;;;;;;;0.17;0.17;;;;;;;;;;4962481;28;20157;-76
2022/12/05 00:57:32;;;;;;;0.10;0.10;;;;;;;;;;4932527;28;20438;-79
2022/12/05 00:59:58;;;;;;;0.20;0.20;;;;;;;;;;4950212;28;20065;-78
2022/12/05 01:02:24;;;;;;;0.10;0.10;;;;;;;;;;4953359;28;20046;-79
2022/12/05 01:04:50;;;;;;;0.10;0.10;;;;;;;;;;4934624;28;20049;-78
2022/12/05 01:07:16;;;;;;;0.20;0.20;;;;;;;;;;4954294;28;20054;-78
2022/12/05 01:09:42;;;;;;;0.10;0.10;;;;;;;;;;4959379;28;20046;-78
2022/12/05 01:12:08;;;;;;;0.20;0.20;;;;;;;;;;4949127;28;20053;-78
2022/12/05 01:14:34;;;;;;;0.10;0.10;;;;;;;;;;4950473;28;20091;-77
2022/12/05 01:17:00;;;;;;;0.20;0.20;;;;;;;;;;4950364;28;20049;-78
2022/12/05 01:19:28;;;;;;;0.20;0.20;;;;;;;;;;4937639;28;20845;-78
2022/12/05 01:21:55;;;;;;;0.10;0.10;;;;;;;;;;4947866;28;20050;-78
2022/12/05 01:24:22;;;;;;;0.20;0.20;;;;;;;;;;4943544;28;20312;-78
2022/12/05 01:26:48;;;;;;;0.20;0.20;;;;;;;;;;4932336;28;20061;-78
2022/12/05 01:29:15;;;;;;;0.10;0.10;;;;;;;;;;4953224;28;20145;-77
2022/12/05 01:31:41;;;;;;;0.10;0.10;;;;;;;;;;4934291;28;20046;-78
2022/12/05 01:34:10;;;;;;;0.10;0.10;;;;;;;;;;4952877;28;20050;-78
2022/12/05 01:36:38;;;;;;;0.20;0.20;;;;;;;;;;4959677;28;20085;-78
2022/12/05 01:39:04;;;;;;;0.20;0.20;;;;;;;;;;4932549;28;20407;-79
2022/12/05 01:41:32;;;;;;;0.20;0.20;;;;;;;;;;4933860;28;20054;-78
2022/12/05 01:44:02;;;;;;;0.10;0.10;;;;;;;;;;4948961;28;20050;-77
2022/12/05 01:46:30;;;;;;;0.10;0.10;;;;;;;;;;4934818;28;20505;-78
2022/12/05 01:48:59;;;;;;;0.10;0.10;;;;;;;;;;4935341;28;20058;-77
2022/12/05 01:51:25;;;;;;;0.20;0.20;;;;;;;;;;4951318;28;20086;-76
2022/12/05 01:53:52;;;;;;;0.10;0.10;;;;;;;;;;4948963;28;20140;-77
2022/12/05 01:56:18;;;;;;;0.10;0.10;;;;;;;;;;4930957;28;20058;-79
2022/12/05 01:58:45;;;;;;;0.20;0.20;;;;;;;;;;4936291;28;20134;-78
2022/12/05 02:01:13;;;;;;;0.20;0.20;;;;;;;;;;4948623;28;20560;-78
2022/12/05 02:03:40;;;;;;;0.13;0.13;;;;;;;;;;4931168;28;20478;-78
2022/12/05 02:06:06;;;;;;;0.20;0.20;;;;;;;;;;4942148;28;20060;-78
2022/12/05 02:08:32;;;;;;;0.10;0.10;;;;;;;;;;4932436;28;20067;-78
2022/12/05 02:10:58;;;;;;;0.20;0.20;;;;;;;;;;4936701;28;20053;-78
2022/12/05 02:13:30;;;;;;;0.20;0.20;;;;;;;;;;4932941;28;20568;-77
2022/12/05 02:16:15;;;;;;;0.20;0.20;;;;;;;;;;4950740;28;20047;-80
2022/12/05 02:18:44;;;;;;;0.15;0.15;;;;;;;;;;4932144;28;20590;-79
2022/12/05 02:21:29;;;;;;;0.10;0.10;;;;;;;;;;4949315;28;20050;-79
2022/12/05 02:24:34;;;;;;;0.20;0.20;;;;;;;;;;4947619;28;20813;-78
2022/12/05 02:27:06;;;;;;;0.20;0.20;;;;;;;;;;4858428;29;20586;-78
2022/12/05 02:29:50;;;;;;;0.10;0.10;;;;;;;;;;4867645;29;20084;-77
2022/12/05 02:32:35;;;;;;;0.20;0.20;;;;;;;;;;4909374;28;20105;-78
2022/12/05 02:35:20;;;;;;;0.20;0.20;;;;;;;;;;4934990;28;20081;-79
2022/12/05 02:37:55;;;;;;;0.10;0.10;;;;;;;;;;4915550;28;20612;-79
2022/12/05 02:40:49;;;;;;;0.17;0.17;;;;;;;;;;4916337;28;20622;-78
2022/12/05 02:43:22;;;;;;;0.10;0.10;;;;;;;;;;4930254;28;20073;-76
2022/12/05 02:45:53;;;;;;;0.10;0.10;;;;;;;;;;4911289;28;20043;-78
2022/12/05 02:48:20;;;;;;;0.10;0.10;;;;;;;;;;4914279;28;20704;-78
2022/12/05 02:50:46;;;;;;;0.20;0.20;;;;;;;;;;4915582;28;20050;-76
2022/12/05 02:53:14;;;;;;;0.10;0.10;;;;;;;;;;4928172;28;20120;-77
2022/12/05 02:55:41;;;;;;;0.17;0.17;;;;;;;;;;4931776;28;20047;-78
2022/12/05 02:58:11;;;;;;;0.15;0.15;;;;;;;;;;4925464;28;20102;-77
2022/12/05 03:00:38;;;;;;;0.10;0.10;;;;;;;;;;4917757;28;20053;-77
2022/12/05 03:03:11;;;;;;;0.10;0.10;;;;;;;;;;4931895;28;20062;-77
2022/12/05 03:05:40;;;;;;;0.17;0.17;;;;;;;;;;4941220;28;20046;-77
2022/12/05 03:08:08;;;;;;;0.20;0.20;;;;;;;;;;4918729;28;20050;-77
2022/12/05 03:10:37;;;;;;;0.10;0.10;;;;;;;;;;4932514;28;20444;-77
2022/12/05 03:13:11;;;;;;;0.10;0.10;;;;;;;;;;4923739;28;20130;-78
2022/12/05 03:15:45;;;;;;;0.15;0.15;;;;;;;;;;4936197;28;20051;-78
2022/12/05 03:18:17;;;;;;;0.15;0.15;;;;;;;;;;4919734;28;20054;-78
2022/12/05 03:20:49;;;;;;;0.20;0.20;;;;;;;;;;4935210;28;20046;-79
2022/12/05 03:23:15;;;;;;;;;;;;;;;;;;4939438;28;20165;-78
2022/12/05 03:25:54;;;;;;;0.20;0.20;;;;;;;;;;4928848;28;19930;-78
2022/12/05 03:28:29;;;;;;;0.10;0.10;;;;;;;;;;4956913;28;20084;-78
2022/12/05 03:30:56;;;;;;;0.20;0.20;;;;;;;;;;4944781;28;20104;-79
2022/12/05 03:33:28;;;;;;;0.10;0.10;;;;;;;;;;4935764;28;20046;-78
2022/12/05 03:36:01;;;;;;;0.10;0.10;;;;;;;;;;4950042;28;20141;-79
2022/12/05 03:38:35;;;;;;;0.10;0.10;;;;;;;;;;4934873;28;20101;-79
2022/12/05 03:41:07;;;;;;;0.20;0.20;;;;;;;;;;4948649;28;20056;-80
2022/12/05 03:43:34;;;;;;;0.15;0.15;;;;;;;;;;4956066;28;20050;-81
2022/12/05 03:46:08;;;;;;;0.20;0.20;;;;;;;;;;4940856;28;20050;-81
2022/12/05 03:48:57;;;;;;;0.10;0.10;;;;;;;;;;4938665;28;20485;-80
2022/12/05 03:51:26;;;;;;;0.10;0.10;;;;;;;;;;4943712;28;20125;-81
2022/12/05 03:53:59;;;;;;;0.10;0.10;;;;;;;;;;4955411;28;20049;-80
2022/12/05 03:56:29;;;;;;;0.20;0.20;;;;;;;;;;4946770;28;20049;-81
2022/12/05 03:59:02;;;;;;;0.10;0.10;;;;;;;;;;4954213;28;20093;-81
2022/12/05 04:01:29;;;;;;;0.20;0.20;;;;;;;;;;4936555;28;20047;-80
2022/12/05 04:03:57;;;;;;;0.10;0.10;;;;;;;;;;4954458;28;20231;-81
2022/12/05 04:06:35;;;;;;;0.10;0.10;;;;;;;;;;4935480;28;20050;-81
2022/12/05 04:09:08;;;;;;;0.17;0.17;;;;;;;;;;4957014;28;20526;-81
2022/12/05 04:11:37;;;;;;;0.10;0.10;;;;;;;;;;4937448;28;20225;-81
2022/12/05 04:14:08;;;;;;;0.17;0.17;;;;;;;;;;4937326;28;20049;-82
2022/12/05 04:21:36;;;;;;;0.10;0.10;;;;;;;;;;4956302;28;20557;-81
2022/12/05 04:22:20;;;;;;;0.15;0.15;;;;;;;;;;4958289;28;20065;-81
2022/12/05 04:27:43;;;;;;;0.10;0.10;;;;;;;;;;4933602;28;20046;-81
2022/12/05 04:30:15;;;;;;;0.20;0.20;;;;;;;;;;4934631;28;20057;-80
2022/12/05 04:32:45;;;;;;;0.10;0.10;;;;;;;;;;4932554;28;20152;-81
2022/12/05 04:35:19;;;;;;;0.20;0.20;;;;;;;;;;4918842;28;20041;-80
2022/12/05 04:37:47;;;;;;;0.13;0.13;;;;;;;;;;4922054;28;20051;-79
2022/12/05 04:40:17;;;;;;;0.10;0.10;;;;;;;;;;4937948;28;20121;-81
2022/12/05 04:42:44;;;;;;;0.20;0.20;;;;;;;;;;4934658;28;20062;-81
2022/12/05 04:45:12;;;;;;;0.20;0.20;;;;;;;;;;4920116;28;20101;-80
2022/12/05 04:47:40;;;;;;;0.20;0.20;;;;;;;;;;4914776;28;20624;-80
2022/12/05 04:50:08;;;;;;;0.20;0.20;;;;;;;;;;4933946;28;20260;-80
2022/12/05 04:52:35;;;;;;;0.10;0.10;;;;;;;;;;4934766;28;20043;-80
2022/12/05 04:55:12;;;;;;;0.20;0.20;;;;;;;;;;4924261;28;20046;-81
2022/12/05 04:57:44;;;;;;;0.10;0.10;;;;;;;;;;4920080;28;20474;-81
2022/12/05 05:00:11;;;;;;;0.10;0.10;;;;;;;;;;4917808;28;20055;-81
2022/12/05 05:03:00;;;;;;;0.10;0.10;;;;;;;;;;4922394;28;20560;-81
2022/12/05 05:05:26;;;;;;;0.10;0.10;;;;;;;;;;4912231;28;20200;-81
2022/12/05 05:07:54;;;;;;;0.10;0.10;;;;;;;;;;4929763;28;20049;-81
2022/12/05 05:10:25;;;;;;;0.20;0.20;;;;;;;;;;4932673;28;20046;-83
2022/12/05 05:12:51;;;;;;;0.20;0.20;;;;;;;;;;4930652;28;20483;-80
2022/12/05 05:15:17;;;;;;;0.10;0.10;;;;;;;;;;4933746;28;20085;-79
2022/12/05 05:17:43;;;;;;;0.20;0.20;;;;;;;;;;4914210;28;20142;-82
2022/12/05 05:20:25;;;;;;;0.15;0.15;;;;;;;;;;4917512;28;20055;-82
2022/12/05 05:22:52;;;;;;;0.10;0.10;;;;;;;;;;4917104;28;20577;-81
2022/12/05 05:25:19;;;;;;;0.10;0.10;;;;;;;;;;4942192;28;20054;-81
2022/12/05 05:27:52;;;;;;;0.20;0.20;;;;;;;;;;4953144;28;20042;-82
2022/12/05 05:30:19;;;;;;;0.20;0.20;;;;;;;;;;4955215;28;20074;-81
2022/12/05 05:32:48;;;;;;;0.20;0.20;;;;;;;;;;4955813;28;20038;-82
2022/12/05 05:35:14;;;;;;;0.20;0.20;;;;;;;;;;4951634;28;20050;-82
2022/12/05 05:37:41;;;;;;;0.10;0.10;;;;;;;;;;4960104;28;20048;-80
2022/12/05 05:40:08;;;;;;;0.20;0.20;;;;;;;;;;4952520;28;20128;-81
2022/12/05 05:42:34;;;;;;;0.10;0.10;;;;;;;;;;4949152;28;20588;-81
2022/12/05 05:45:00;;;;;;;0.20;0.20;;;;;;;;;;4952543;28;20177;-81
2022/12/05 05:47:26;;;;;;;0.20;0.20;;;;;;;;;;4947111;28;20414;-81
2022/12/05 05:49:52;;;;;;;0.10;0.10;;;;;;;;;;4934333;28;20499;-81
2022/12/05 05:52:18;;;;;;;0.20;0.20;;;;;;;;;;4939580;28;20058;-81
2022/12/05 05:54:44;;;;;;;0.10;0.10;;;;;;;;;;4932412;28;20038;-82
2022/12/05 05:57:10;;;;;;;0.20;0.20;;;;;;;;;;4938777;28;20050;-81
2022/12/05 05:59:36;;;;;;;0.13;0.13;;;;;;;;;;4949433;28;20221;-82
2022/12/05 06:02:02;;;;;;;0.20;0.20;;;;;;;;;;4930850;28;20077;-81
2022/12/05 06:04:28;;;;;;;0.20;0.20;;;;;;;;;;4948161;28;20484;-82
2022/12/05 06:06:54;;;;;;;0.20;0.20;;;;;;;;;;4932989;28;20360;-81
2022/12/05 06:09:20;;;;;;;0.10;0.10;;;;;;;;;;4936614;28;20042;-82
2022/12/05 06:11:46;;;;;;;0.15;0.15;;;;;;;;;;4953174;28;20192;-83
2022/12/05 06:14:12;;;;;;;0.10;0.10;;;;;;;;;;4944355;28;20614;-81
2022/12/05 06:16:38;;;;;;;0.20;0.20;;;;;;;;;;4953083;28;20054;-81
2022/12/05 06:19:04;;;;;;;0.20;0.20;;;;;;;;;;4950480;28;20046;-81
2022/12/05 06:21:30;;;;;;;0.10;0.10;;;;;;;;;;4935963;28;20054;-81
2022/12/05 06:23:56;;;;;;;0.20;0.20;;;;;;;;;;4938843;28;20571;-81
2022/12/05 06:26:23;;;;;;;0.13;0.13;;;;;;;;;;4937725;28;20552;-82
2022/12/05 06:28:51;;;;;;;0.20;0.20;;;;;;;;;;4952833;28;20059;-83
2022/12/05 06:31:19;;;;;;;0.13;0.13;;;;;;;;;;4932868;28;20050;-81
2022/12/05 06:33:45;;;;;;;0.20;0.20;;;;;;;;;;4936224;28;20054;-84
2022/12/05 06:36:12;;;;;;;0.10;0.10;;;;;;;;;;4951007;28;20745;-81
2022/12/05 06:38:38;;;;;;;0.20;0.20;;;;;;;;;;4933268;28;20050;-81
2022/12/05 06:41:06;;;;;;;0.10;0.10;;;;;;;;;;4934032;28;20772;-82
2022/12/05 06:43:32;;;;;;;0.10;0.10;;;;;;;;;;4931066;28;20050;-82
2022/12/05 06:45:58;;;;;;;0.10;0.10;;;;;;;;;;4952195;28;20038;-82
2022/12/05 06:48:24;;;;;;;0.20;0.20;;;;;;;;;;4931027;28;20540;-81
2022/12/05 06:50:51;;;;;;;0.10;0.10;;;;;;;;;;4950377;28;20687;-83
2022/12/05 06:53:17;;;;;;;0.20;0.20;;;;;;;;;;4933737;28;20073;-80
2022/12/05 06:55:43;;;;;;;0.10;0.10;;;;;;;;;;4952336;28;20480;-83
2022/12/05 06:58:09;;;;;;;0.10;0.10;;;;;;;;;;4950031;28;20034;-83
2022/12/05 07:03:20;;;;;;;0.10;0.10;;;;;;;;;;4947751;28;20046;-81
2022/12/05 07:05:46;;;;;;;0.20;0.20;;;;;;;;;;4930377;28;20058;-80
2022/12/05 07:08:12;;;;;;;0.10;0.10;;;;;;;;;;4947362;28;20050;-79
2022/12/05 07:10:38;;;;;;;0.10;0.10;;;;;;;;;;4931001;28;20038;-79
2022/12/05 07:13:04;;;;;;;0.10;0.10;;;;;;;;;;4947247;28;20092;-77
2022/12/05 07:15:30;;;;;;;0.10;0.10;;;;;;;;;;4944987;28;20081;-76
2022/12/05 07:17:56;;;;;;;0.10;0.10;;;;;;;;;;4945992;28;20597;-76
2022/12/05 07:20:22;;;;;;;0.10;0.10;;;;;;;;;;4931988;28;20153;-75
2022/12/05 07:22:48;;;;;;;0.20;0.20;;;;;;;;;;4942679;28;20046;-76
2022/12/05 07:25:15;;;;;;;0.20;0.20;;;;;;;;;;4932657;28;20065;-76
2022/12/05 07:27:41;;;;;;;0.10;0.10;;;;;;;;;;4932191;28;20054;-75
2022/12/05 07:30:08;;;;;;;0.13;0.13;;;;;;;;;;4928604;28;20120;-76
2022/12/05 07:32:34;;;;;;;0.13;0.13;;;;;;;;;;4937990;28;20528;-76
2022/12/05 07:35:00;;;;;;;0.20;0.20;;;;;;;;;;4950188;28;20054;-76
2022/12/05 07:37:26;;;;;;;0.20;0.20;;;;;;;;;;4946104;28;20047;-77
2022/12/05 07:39:52;;;;;;;0.10;0.10;;;;;;;;;;4930259;28;20143;-76
2022/12/05 07:42:18;;;;;;;0.20;0.20;;;;;;;;;;4946432;28;20052;-76
2022/12/05 07:44:44;;;;;;;0.17;0.17;;;;;;;;;;4934834;28;20872;-76
2022/12/05 07:47:10;;;;;;;0.20;0.20;;;;;;;;;;4931839;28;20474;-75
2022/12/05 07:49:36;;;;;;;0.20;0.20;;;;;;;;;;4941979;28;20034;-76
2022/12/05 07:52:02;;;;;;;0.10;0.10;;;;;;;;;;4953184;28;20837;-77
2022/12/05 07:54:28;;;;;;;0.20;0.20;;;;;;;;;;4950482;28;20570;-76
2022/12/05 07:56:54;;;;;;;0.10;0.10;;;;;;;;;;4963647;28;20482;-77
2022/12/05 07:59:20;;;;;;;0.10;0.10;;;;;;;;;;4958682;28;20469;-76
2022/12/05 08:01:46;;;;;;;0.20;0.20;;;;;;;;;;4949722;28;20046;-75
2022/12/05 08:04:12;;;;;;;0.10;0.10;;;;;;;;;;4930836;28;20117;-77
2022/12/05 08:06:38;;;;;;;0.15;0.15;;;;;;;;;;4933183;28;20509;-75
2022/12/05 08:09:08;;;;;;;0.17;0.17;;;;;;;;;;4949671;28;20833;-76
2022/12/05 08:11:35;;;;;;;0.20;0.20;;;;;;;;;;4954615;28;20710;-76
2022/12/05 08:14:01;;;;;;;0.20;0.20;;;;;;;;;;4930131;28;20077;-77
2022/12/05 08:16:28;;;;;;;0.10;0.10;;;;;;;;;;4950145;28;20531;-76
2022/12/05 08:18:59;;;;;;;0.10;0.10;;;;;;;;;;4952816;28;20819;-76
2022/12/05 08:21:25;;;;;;;0.10;0.10;;;;;;;;;;4947931;28;20042;-77
2022/12/05 08:23:51;;;;;;;0.20;0.20;;;;;;;;;;4933253;28;20046;-76
2022/12/05 08:26:23;;;;;;;0.10;0.10;;;;;;;;;;4947561;28;20113;-76
2022/12/05 08:28:57;;;;;;;0.13;0.13;;;;;;;;;;4931262;28;20054;-77
2022/12/05 08:31:23;;;;;;;0.20;0.20;;;;;;;;;;4953963;28;20112;-77
2022/12/05 08:33:50;;;;;;;0.10;0.10;;;;;;;;;;4949506;28;20054;-77
2022/12/05 08:36:17;;;;;;;0.15;0.15;;;;;;;;;;4948800;28;20455;-75
2022/12/05 08:38:43;;;;;;;0.10;0.10;;;;;;;;;;4953285;28;20053;-76
2022/12/05 08:41:16;;;;;;;0.20;0.20;;;;;;;;;;4936058;28;20639;-76
2022/12/05 08:43:43;;;;;;;0.10;0.10;;;;;;;;;;4951764;28;20141;-77
2022/12/05 08:46:10;;;;;;;0.10;0.10;;;;;;;;;;4952056;28;20446;-77
2022/12/05 08:48:36;;;;;;;0.10;0.10;;;;;;;;;;4948959;28;20046;-77
2022/12/05 08:51:11;;;;;;;0.10;0.10;;;;;;;;;;4955292;28;20111;-78
2022/12/05 08:53:38;;;;;;;0.20;0.20;;;;;;;;;;4941373;28;20069;-77
2022/12/05 08:56:05;;;;;;;0.10;0.10;;;;;;;;;;4939043;28;20077;-78
2022/12/05 08:58:31;;;;;;;0.10;0.10;;;;;;;;;;4934085;28;20065;-77
2022/12/05 09:01:04;;;;;;;0.10;0.10;;;;;;;;;;4953091;28;20672;-78
2022/12/05 09:03:30;;;;;;;0.10;0.10;;;;;;;;;;4948819;28;20671;-79
2022/12/05 09:06:07;;;;;;;0.20;0.20;;;;;;;;;;4938435;28;20042;-79
2022/12/05 09:08:33;;;;;;;0.20;0.20;;;;;;;;;;4933225;28;20085;-77
2022/12/05 09:10:59;;;;;;;0.20;0.20;;;;;;;;;;4949681;28;20042;-76
2022/12/05 09:13:25;;;;;;;0.20;0.20;;;;;;;;;;4932372;28;20448;-77
2022/12/05 09:15:52;;;;;;;0.10;0.10;;;;;;;;;;4932494;28;20241;-77
2022/12/05 09:18:18;;;;;;;0.10;0.10;;;;;;;;;;4951041;28;20551;-78
2022/12/05 09:20:44;;;;;;;0.20;0.20;;;;;;;;;;4933039;28;20057;-78
2022/12/05 09:23:10;;;;;;;0.10;0.10;;;;;;;;;;4932195;28;20239;-77
2022/12/05 09:25:36;;;;;;;0.10;0.10;;;;;;;;;;4946865;28;20870;-79
2022/12/05 09:28:05;;;;;;;0.10;0.10;;;;;;;;;;4949116;28;20054;-78
2022/12/05 09:30:31;;;;;;;0.20;0.20;;;;;;;;;;4951887;28;20050;-78
2022/12/05 09:32:57;;;;;;;0.17;0.17;;;;;;;;;;4933510;28;20888;-76
2022/12/05 09:35:23;;;;;;;0.15;0.15;;;;;;;;;;4932210;28;20046;-78
2022/12/05 09:37:49;;;;;;;0.10;0.10;;;;;;;;;;4950217;28;20042;-77
2022/12/05 09:40:17;;;;;;;0.47;0.25;;;;;;;;;;4949496;28;20057;-77
2022/12/05 09:42:55;;;;;;;0.10;0.10;;;;;;;;;;4949832;28;20042;-79
2022/12/05 09:45:23;;;;;;;0.10;0.10;;;;;;;;;;4929888;28;20043;-77
2022/12/05 09:47:49;;;;;;;0.20;0.20;;;;;;;;;;4952205;28;20042;-77
2022/12/05 09:50:20;;;;;;;0.20;0.20;;;;;;;;;;4950224;28;20133;-77
2022/12/05 09:53:02;;;;;;;0.20;0.20;;;;;;;;;;4946020;28;21001;-77
2022/12/05 09:55:32;;;;;;;0.20;0.20;;;;;;;;;;4946877;28;20129;-77
2022/12/05 09:58:00;;;;;;;0.20;0.20;;;;;;;;;;4950318;28;20038;-79
2022/12/05 10:00:27;;;;;;;0.20;0.20;;;;;;;;;;4933291;28;20061;-69
2022/12/05 10:03:00;;;;;;;0.10;0.10;;;;;;;;;;4933075;28;20046;-78
2022/12/05 10:05:59;;;;;;;0.20;0.20;;;;;;;;;;4932722;28;20173;-78
2022/12/05 10:08:42;;;;;;;0.10;0.10;;;;;;;;;;4904003;28;20069;-77
2022/12/05 10:11:17;;;;;;;0.20;0.20;;;;;;;;;;4956445;28;20136;-77
2022/12/05 10:13:48;;;;;;;0.10;0.10;;;;;;;;;;4940257;28;20189;-77
2022/12/05 10:16:18;;;;;;;0.20;0.20;;;;;;;;;;4945141;28;21207;-78
2022/12/05 10:18:54;;;;;;;0.17;0.17;;;;;;;;;;4943843;28;20137;-77
2022/12/05 10:21:32;;;;;;;0.10;0.10;;;;;;;;;;4943716;28;20557;-77
2022/12/05 10:24:00;;;;;;;0.10;0.10;;;;;;;;;;4925525;28;20082;-78
2022/12/05 10:26:29;;;;;;;0.10;0.10;;;;;;;;;;4934596;28;20541;-76
2022/12/05 10:28:58;;;;;;;0.17;0.17;;;;;;;;;;4962247;28;20053;-76
2022/12/05 10:31:27;;;;;;;0.20;0.20;;;;;;;;;;4950409;28;20050;-77
2022/12/05 10:34:00;;;;;;;0.10;0.10;;;;;;;;;;4941402;28;20462;-79
2022/12/05 10:36:26;;;;;;;0.10;0.10;;;;;;;;;;4926117;28;20074;-77
2022/12/05 10:38:55;;;;;;;0.20;0.20;;;;;;;;;;4928931;28;20222;-76
2022/12/05 10:41:22;;;;;;;0.10;0.10;;;;;;;;;;4923805;28;20228;-76
2022/12/05 10:43:48;;;;;;;0.20;0.20;;;;;;;;;;4929832;28;20100;-77
2022/12/05 10:46:15;;;;;;;0.10;0.10;;;;;;;;;;4932247;28;20105;-76
2022/12/05 10:48:41;;;;;;;0.20;0.20;;;;;;;;;;4944390;28;20070;-77
2022/12/05 10:51:13;;;;;;;0.15;0.15;;;;;;;;;;4926460;28;20149;-77
2022/12/05 10:53:40;;;;;;;0.10;0.10;;;;;;;;;;4946870;28;20294;-76
2022/12/05 10:56:25;;;;;;;0.10;0.10;;;;;;;;;;4954097;28;20046;-77
2022/12/05 10:58:57;;;;;;;0.10;0.10;;;;;;;;;;4954609;28;20080;-76
2022/12/05 11:01:25;;;;;;;0.20;0.20;;;;;;;;;;4941234;28;20046;-77
2022/12/05 11:03:56;;;;;;;0.20;0.20;;;;;;;;;;4931886;28;20089;-77
2022/12/05 11:06:27;;;;;;;0.17;0.17;;;;;;;;;;4930958;28;20050;-77
2022/12/05 11:09:03;;;;;;;0.20;0.20;;;;;;;;;;4942643;28;20048;-76
2022/12/05 11:11:32;;;;;;;0.20;0.20;;;;;;;;;;4945802;28;20046;-76
2022/12/05 11:13:59;;;;;;;0.20;0.20;;;;;;;;;;4926033;28;20070;-77
2022/12/05 11:16:28;;;;;;;0.10;0.10;;;;;;;;;;4943952;28;20442;-77
2022/12/05 11:18:54;;;;;;;0.10;0.10;;;;;;;;;;4932267;28;20129;-77
2022/12/05 11:21:20;;;;;;;0.15;0.15;;;;;;;;;;4930561;28;20038;-77
2022/12/05 11:23:47;;;;;;;0.17;0.17;;;;;;;;;;4946676;28;20274;-77
2022/12/05 11:26:41;;;;;;;0.20;0.20;;;;;;;;;;4949351;28;20050;-78
2022/12/05 11:29:27;;;;;;;0.20;0.20;;;;;;;;;;4926212;28;20062;-80
2022/12/05 11:31:53;;;;;;;0.20;0.20;;;;;;;;;;4948957;28;20050;-77
2022/12/05 11:34:29;;;;;;;0.10;0.10;;;;;;;;;;4932286;28;20050;-79
2022/12/05 11:37:03;;;;;;;0.13;0.13;;;;;;;;;;4933462;28;20046;-77
2022/12/05 11:39:29;;;;;;;0.10;0.10;;;;;;;;;;4933315;28;20077;-77
2022/12/05 11:42:17;;;;;;;0.20;0.20;;;;;;;;;;4946426;28;20655;-77
2022/12/05 11:45:13;;;;;;;0.10;0.10;;;;;;;;;;4932811;28;20058;-77
2022/12/05 11:47:48;;;;;;;0.20;0.20;;;;;;;;;;4941778;28;20046;-77
2022/12/05 11:50:18;;;;;;;0.20;0.20;;;;;;;;;;4951198;28;20070;-76
2022/12/05 11:52:46;;;;;;;0.20;0.20;;;;;;;;;;4928772;28;20489;-79
2022/12/05 11:55:18;;;;;;;0.20;0.20;;;;;;;;;;4946961;28;20243;-76
2022/12/05 11:58:06;;;;;;;0.20;0.20;;;;;;;;;;4947553;28;20042;-77
2022/12/05 12:00:32;;;;;;;0.17;0.17;;;;;;;;;;4931315;28;20255;-76
2022/12/05 12:02:58;;;;;;;0.10;0.10;;;;;;;;;;4931410;28;20074;-77
2022/12/05 12:05:27;;;;;;;0.20;0.20;;;;;;;;;;4921020;28;20530;-77
2022/12/05 12:07:59;;;;;;;0.15;0.15;;;;;;;;;;4939093;28;20136;-77
2022/12/05 12:10:36;;;;;;;0.20;0.20;;;;;;;;;;4955721;28;20050;-76
2022/12/05 12:13:31;;;;;;;0.10;0.10;;;;;;;;;;4933151;28;20448;-76
2022/12/05 12:16:03;;;;;;;0.10;0.10;;;;;;;;;;4920659;28;20862;-76
2022/12/05 12:18:29;;;;;;;0.10;0.10;;;;;;;;;;4936468;28;20601;-77
2022/12/05 12:21:14;;;;;;;0.10;0.10;;;;;;;;;;4920285;28;20050;-76
2022/12/05 12:23:55;;;;;;;0.20;0.20;;;;;;;;;;4951941;28;20046;-77
2022/12/05 12:26:39;;;;;;;0.13;0.13;;;;;;;;;;4954809;28;20069;-77
2022/12/05 12:29:11;;;;;;;0.20;0.20;;;;;;;;;;4931587;28;20158;-77
2022/12/05 12:31:43;;;;;;;0.17;0.17;;;;;;;;;;4951869;28;20049;-77
2022/12/05 12:34:18;;;;;;;0.10;0.10;;;;;;;;;;4955023;28;20076;-77
2022/12/05 12:36:48;;;;;;;0.10;0.10;;;;;;;;;;4936547;28;20054;-77
2022/12/05 12:39:20;;;;;;;0.10;0.10;;;;;;;;;;4934569;28;20212;-77
2022/12/05 12:41:55;;;;;;;0.10;0.10;;;;;;;;;;4950946;28;20533;-76
2022/12/05 12:44:28;;;;;;;0.20;0.20;;;;;;;;;;4934865;28;20042;-76
2022/12/05 12:46:56;;;;;;;0.10;0.10;;;;;;;;;;4937794;28;20082;-77
2022/12/05 12:49:41;;;;;;;0.20;0.20;;;;;;;;;;4949600;28;20580;-77
2022/12/05 12:52:13;;;;;;;0.15;0.15;;;;;;;;;;4945745;28;20527;-77
2022/12/05 12:54:52;;;;;;;0.20;0.20;;;;;;;;;;4942387;28;20054;-76
2022/12/05 12:57:30;;;;;;;0.20;0.20;;;;;;;;;;4943518;28;20037;-77
2022/12/05 13:00:01;;;;;;;0.10;0.10;;;;;;;;;;4958560;28;20122;-77
2022/12/05 13:02:27;;;;;;;;;;;;;;;;;;4952823;28;20144;-78
2022/12/05 13:05:20;;;;;;;0.20;0.20;;;;;;;;;;4932342;28;20351;-76
2022/12/05 13:07:56;;;;;;;0.20;0.20;;;;;;;;;;4935924;28;20991;-77
2022/12/05 13:10:25;;;;;;;0.10;0.10;;;;;;;;;;4935718;28;20646;-78
2022/12/05 13:12:52;;;;;;;0.10;0.10;;;;;;;;;;4950774;28;20100;-78
2022/12/05 13:15:32;;;;;;;0.20;0.20;;;;;;;;;;4958950;28;20038;-75
2022/12/05 13:17:59;;;;;;;0.10;0.10;;;;;;;;;;4934314;28;20042;-78
2022/12/05 13:20:27;;;;;;;0.17;0.17;;;;;;;;;;4936607;28;20157;-76
2022/12/05 13:22:54;;;;;;;0.20;0.20;;;;;;;;;;4966549;28;20049;-76
2022/12/05 13:25:22;;;;;;;0.10;0.10;;;;;;;;;;4940528;28;20050;-76
2022/12/05 13:27:54;;;;;;;0.20;0.20;;;;;;;;;;4953426;28;20486;-75
2022/12/05 13:30:20;;;;;;;0.17;0.17;;;;;;;;;;4949614;28;20042;-75
2022/12/05 13:32:46;;;;;;;0.10;0.10;;;;;;;;;;4929780;28;20486;-76
2022/12/05 13:44:01;;;;;;;0.10;0.10;;;;;;;;;;4933902;28;20061;-76
2022/12/05 13:46:27;;;;;;;0.10;0.10;;;;;;;;;;4955314;28;20469;-77
2022/12/05 13:48:59;;;;;;;0.20;0.20;;;;;;;;;;4948838;28;20081;-76
2022/12/05 13:51:44;;;;;;;0.10;0.10;;;;;;;;;;4949307;28;20371;-78
2022/12/05 13:54:12;;;;;;;0.20;0.20;;;;;;;;;;4931610;28;20899;-76
2022/12/05 13:57:00;;;;;;;0.20;0.20;;;;;;;;;;4933427;28;20105;-76
2022/12/05 13:59:45;;;;;;;0.20;0.20;;;;;;;;;;4944064;28;20149;-79
2022/12/05 14:02:30;;;;;;;0.20;0.20;;;;;;;;;;4960650;28;20046;-79
2022/12/05 14:04:56;;;;;;;0.10;0.10;;;;;;;;;;4928117;28;20054;-77
2022/12/05 14:07:39;;;;;;;0.10;0.10;;;;;;;;;;4928610;28;20046;-77
2022/12/05 14:10:05;;;;;;;0.10;0.10;;;;;;;;;;4947230;28;20091;-77
2022/12/05 14:12:45;;;;;;;0.10;0.10;;;;;;;;;;4935720;28;20078;-77
2022/12/05 14:15:31;;;;;;;0.10;0.10;;;;;;;;;;4935518;28;20135;-77
2022/12/05 14:18:17;;;;;;;0.20;0.20;;;;;;;;;;4947033;28;20088;-77
2022/12/05 14:20:48;;;;;;;0.10;0.10;;;;;;;;;;4943576;28;20465;-78
2022/12/05 14:23:20;;;;;;;0.20;0.20;;;;;;;;;;4944911;28;20349;-77
2022/12/05 14:26:04;;;;;;;0.10;0.10;;;;;;;;;;4935335;28;20109;-78
2022/12/05 14:28:30;;;;;;;0.10;0.10;;;;;;;;;;4949251;28;20058;-77
2022/12/05 14:30:59;;;;;;;0.13;0.13;;;;;;;;;;4929194;28;20068;-78
2022/12/05 14:33:25;;;;;;;0.10;0.10;;;;;;;;;;4948161;28;20093;-77
2022/12/05 14:35:52;;;;;;;0.10;0.10;;;;;;;;;;4932314;28;20543;-77
2022/12/05 14:38:27;;;;;;;0.20;0.20;;;;;;;;;;4936499;28;20057;-78
2022/12/05 14:40:54;;;;;;;0.20;0.20;;;;;;;;;;4946587;28;20084;-78
2022/12/05 14:43:25;;;;;;;0.10;0.10;;;;;;;;;;4956058;28;20053;-78
2022/12/05 14:45:51;;;;;;;0.10;0.10;;;;;;;;;;4935975;28;20169;-79
2022/12/05 14:48:17;;;;;;;0.10;0.10;;;;;;;;;;4935826;28;20520;-78
2022/12/05 14:50:48;;;;;;;0.10;0.10;;;;;;;;;;4951762;28;20627;-78
2022/12/05 14:53:14;;;;;;;0.10;0.10;;;;;;;;;;4958307;28;20053;-78
2022/12/05 14:56:12;;;;;;;0.13;0.13;;;;;;;;;;4940494;28;20934;-78
2022/12/05 14:58:44;;;;;;;0.17;0.17;;;;;;;;;;4912545;28;20046;-79
2022/12/05 15:01:25;;;;;;;0.10;0.10;;;;;;;;;;4929588;28;20042;-78
2022/12/05 15:04:10;;;;;;;0.13;0.13;;;;;;;;;;4942523;28;20243;-78
2022/12/05 15:06:44;;;;;;;0.13;0.13;;;;;;;;;;4941723;28;20050;-78
2022/12/05 15:09:24;;;;;;;0.10;0.10;;;;;;;;;;4956737;28;20119;-79
2022/12/05 15:11:50;;;;;;;0.10;0.10;;;;;;;;;;4937665;28;20046;-79
2022/12/05 15:14:20;;;;;;;0.10;0.10;;;;;;;;;;4945765;28;20057;-78
2022/12/05 15:16:48;;;;;;;0.10;0.10;;;;;;;;;;4941960;28;20564;-78
2022/12/05 15:19:21;;;;;;;0.10;0.10;;;;;;;;;;4926681;28;20060;-78